createdAt,value
2019-04-30T00:00:53.028Z,858.00
2019-04-30T00:01:55.888Z,858.00
2019-04-30T00:02:55.185Z,858.00
2019-04-30T00:03:55.778Z,857.00
2019-04-30T00:04:55.401Z,856.00
2019-04-30T00:05:57.467Z,856.00
2019-04-30T00:06:55.975Z,856.00
2019-04-30T00:07:58.502Z,856.00
2019-04-30T00:08:57.715Z,856.00
2019-04-30T00:09:57.726Z,856.00
2019-04-30T00:10:57.867Z,846.00
2019-04-30T00:12:01.245Z,846.00
2019-04-30T00:12:59.038Z,857.00
2019-04-30T00:14:00.380Z,857.00
2019-04-30T00:15:00.763Z,857.00
2019-04-30T00:16:01.712Z,858.00
2019-04-30T00:17:00.702Z,858.00
2019-04-30T00:18:02.147Z,858.00
2019-04-30T00:19:02.624Z,857.00
2019-04-30T00:20:03.069Z,857.00
2019-04-30T00:21:05.263Z,857.00
2019-04-30T00:22:02.881Z,857.00
2019-04-30T00:23:05.147Z,857.00
2019-04-30T00:24:06.229Z,857.00
2019-04-30T00:25:05.351Z,857.00
2019-04-30T00:26:10.147Z,857.00
2019-04-30T00:27:05.513Z,857.00
2019-04-30T00:28:08.684Z,856.00
2019-04-30T00:29:06.308Z,856.00
2019-04-30T00:30:09.137Z,856.00
2019-04-30T00:30:16.250Z,856.00
2019-04-30T00:31:23.763Z,857.00
2019-04-30T00:32:17.181Z,857.00
2019-04-30T00:33:22.032Z,857.00
2019-04-30T00:34:17.959Z,856.00
2019-04-30T00:35:19.770Z,857.00
2019-04-30T00:36:18.766Z,857.00
2019-04-30T00:37:20.208Z,857.00
2019-04-30T00:38:20.728Z,856.00
2019-04-30T00:39:21.133Z,856.00
2019-04-30T00:40:25.700Z,857.00
2019-04-30T00:41:21.207Z,857.00
2019-04-30T00:42:24.152Z,857.00
2019-04-30T00:43:22.558Z,856.00
2019-04-30T00:44:28.222Z,846.00
2019-04-30T00:45:25.178Z,846.00
2019-04-30T00:46:27.275Z,846.00
2019-04-30T00:47:25.683Z,846.00
2019-04-30T00:48:29.686Z,856.00
2019-04-30T00:49:26.663Z,857.00
2019-04-30T00:50:29.050Z,837.00
2019-04-30T00:51:26.338Z,846.00
2019-04-30T00:52:29.583Z,845.00
2019-04-30T00:53:27.042Z,846.00
2019-04-30T00:54:30.846Z,847.00
2019-04-30T00:55:27.903Z,847.00
2019-04-30T00:56:29.537Z,846.00
2019-04-30T00:57:29.996Z,857.00
2019-04-30T00:58:30.501Z,846.00
2019-04-30T00:59:29.877Z,857.00
2019-04-30T01:00:31.405Z,847.00
2019-04-30T01:01:31.955Z,846.00
2019-04-30T01:02:32.614Z,846.00
2019-04-30T01:03:34.946Z,856.00
2019-04-30T01:04:32.463Z,857.00
2019-04-30T01:05:35.358Z,858.00
2019-04-30T01:06:34.978Z,859.00
2019-04-30T01:07:35.397Z,858.00
2019-04-30T01:08:35.815Z,858.00
2019-04-30T01:09:35.389Z,857.00
2019-04-30T01:10:35.488Z,858.00
2019-04-30T01:11:39.853Z,857.00
2019-04-30T01:12:43.897Z,857.00
2019-04-30T01:13:38.905Z,856.00
2019-04-30T01:14:38.640Z,856.00
2019-04-30T01:15:39.080Z,857.00
2019-04-30T01:16:39.521Z,857.00
2019-04-30T01:17:40.847Z,857.00
2019-04-30T01:18:39.957Z,857.00
2019-04-30T01:19:41.438Z,857.00
2019-04-30T01:20:41.947Z,857.00
2019-04-30T01:21:46.932Z,857.00
2019-04-30T01:22:42.297Z,857.00
2019-04-30T01:23:51.724Z,847.00
2019-04-30T01:24:43.255Z,847.00
2019-04-30T01:25:49.907Z,857.00
2019-04-30T01:26:44.590Z,857.00
2019-04-30T01:27:46.753Z,857.00
2019-04-30T01:28:45.432Z,857.00
2019-04-30T01:29:48.633Z,857.00
2019-04-30T01:30:46.343Z,857.00
2019-04-30T01:31:48.869Z,846.00
2019-04-30T01:32:50.255Z,858.00
2019-04-30T01:33:48.940Z,858.00
2019-04-30T01:34:49.858Z,860.00
2019-04-30T01:35:48.891Z,861.00
2019-04-30T01:36:52.198Z,860.00
2019-04-30T01:37:49.338Z,860.00
2019-04-30T01:38:52.439Z,860.00
2019-04-30T01:39:50.353Z,859.00
2019-04-30T01:40:51.816Z,859.00
2019-04-30T01:41:52.408Z,859.00
2019-04-30T01:42:52.806Z,859.00
2019-04-30T01:43:53.303Z,860.00
2019-04-30T01:44:54.177Z,864.00
2019-04-30T01:45:02.710Z,862.00
2019-04-30T01:46:09.370Z,852.00
2019-04-30T01:47:03.505Z,860.00
2019-04-30T01:48:09.270Z,860.00
2019-04-30T01:49:04.872Z,860.00
2019-04-30T01:50:06.496Z,860.00
2019-04-30T01:51:08.856Z,852.00
2019-04-30T01:52:06.429Z,860.00
2019-04-30T01:53:11.435Z,859.00
2019-04-30T01:54:09.246Z,859.00
2019-04-30T01:55:08.549Z,860.00
2019-04-30T01:56:09.184Z,859.00
2019-04-30T01:57:10.835Z,859.00
2019-04-30T01:58:09.714Z,859.00
2019-04-30T01:59:11.129Z,859.00
2019-04-30T02:00:11.651Z,859.00
2019-04-30T02:01:12.163Z,859.00
2019-04-30T02:02:12.655Z,859.00
2019-04-30T02:03:13.040Z,859.00
2019-04-30T02:04:13.485Z,859.00
2019-04-30T02:05:13.860Z,859.00
2019-04-30T02:06:14.315Z,859.00
2019-04-30T02:07:14.751Z,860.00
2019-04-30T02:08:15.351Z,859.00
2019-04-30T02:09:16.047Z,860.00
2019-04-30T02:10:18.481Z,849.00
2019-04-30T02:11:15.880Z,848.00
2019-04-30T02:12:19.711Z,849.00
2019-04-30T02:13:18.896Z,859.00
2019-04-30T02:14:18.970Z,859.00
2019-04-30T02:15:19.198Z,859.00
2019-04-30T02:16:20.991Z,859.00
2019-04-30T02:17:19.353Z,859.00
2019-04-30T02:18:19.677Z,858.00
2019-04-30T02:19:21.161Z,860.00
2019-04-30T02:20:21.652Z,860.00
2019-04-30T02:21:22.015Z,860.00
2019-04-30T02:22:22.461Z,859.00
2019-04-30T02:23:22.849Z,860.00
2019-04-30T02:24:23.230Z,866.00
2019-04-30T02:25:23.598Z,866.00
2019-04-30T02:26:23.998Z,865.00
2019-04-30T02:27:24.376Z,862.00
2019-04-30T02:28:25.260Z,861.00
2019-04-30T02:29:24.703Z,861.00
2019-04-30T02:30:26.337Z,861.00
2019-04-30T02:31:26.756Z,861.00
2019-04-30T02:32:30.195Z,861.00
2019-04-30T02:33:27.113Z,861.00
2019-04-30T02:34:30.308Z,861.00
2019-04-30T02:35:28.852Z,860.00
2019-04-30T02:36:29.919Z,860.00
2019-04-30T02:37:30.130Z,860.00
2019-04-30T02:38:30.248Z,861.00
2019-04-30T02:39:30.387Z,861.00
2019-04-30T02:40:31.834Z,860.00
2019-04-30T02:41:32.258Z,860.00
2019-04-30T02:42:32.686Z,860.00
2019-04-30T02:43:33.235Z,861.00
2019-04-30T02:44:33.710Z,861.00
2019-04-30T02:45:34.127Z,862.00
2019-04-30T02:45:42.672Z,865.00
2019-04-30T02:46:44.018Z,866.00
2019-04-30T02:47:44.638Z,866.00
2019-04-30T02:48:45.643Z,864.00
2019-04-30T02:49:46.035Z,865.00
2019-04-30T02:50:49.006Z,866.00
2019-04-30T02:51:45.931Z,868.00
2019-04-30T02:52:50.462Z,869.00
2019-04-30T02:53:47.174Z,866.00
2019-04-30T02:54:49.956Z,864.00
2019-04-30T02:55:49.942Z,861.00
2019-04-30T02:56:50.689Z,860.00
2019-04-30T02:57:49.912Z,860.00
2019-04-30T02:58:50.612Z,860.00
2019-04-30T02:59:50.365Z,860.00
2019-04-30T03:00:51.785Z,859.00
2019-04-30T03:01:52.218Z,859.00
2019-04-30T03:02:52.747Z,860.00
2019-04-30T03:03:53.168Z,849.00
2019-04-30T03:04:53.665Z,849.00
2019-04-30T03:05:54.163Z,835.00
2019-04-30T03:06:54.517Z,860.00
2019-04-30T03:07:54.934Z,852.00
2019-04-30T03:08:55.431Z,852.00
2019-04-30T03:09:56.050Z,852.00
2019-04-30T03:10:56.465Z,850.00
2019-04-30T03:11:59.944Z,850.00
2019-04-30T03:12:56.354Z,849.00
2019-04-30T03:13:59.290Z,849.00
2019-04-30T03:15:00.261Z,859.00
2019-04-30T03:15:59.345Z,860.00
2019-04-30T03:17:00.098Z,860.00
2019-04-30T03:18:00.641Z,859.00
2019-04-30T03:19:00.148Z,860.00
2019-04-30T03:20:03.549Z,859.00
2019-04-30T03:21:01.248Z,859.00
2019-04-30T03:22:02.498Z,859.00
2019-04-30T03:23:02.916Z,859.00
2019-04-30T03:24:03.593Z,859.00
2019-04-30T03:25:04.044Z,858.00
2019-04-30T03:26:04.445Z,859.00
2019-04-30T03:27:04.926Z,859.00
2019-04-30T03:28:05.473Z,859.00
2019-04-30T03:29:06.133Z,859.00
2019-04-30T03:30:06.676Z,858.00
2019-04-30T03:31:07.103Z,859.00
2019-04-30T03:32:12.397Z,859.00
2019-04-30T03:33:07.156Z,859.00
2019-04-30T03:34:17.101Z,860.00
2019-04-30T03:35:12.514Z,860.00
2019-04-30T03:36:12.391Z,859.00
2019-04-30T03:37:10.111Z,859.00
2019-04-30T03:38:10.285Z,860.00
2019-04-30T03:39:11.902Z,860.00
2019-04-30T03:40:13.120Z,860.00
2019-04-30T03:41:12.061Z,861.00
2019-04-30T03:42:13.625Z,861.00
2019-04-30T03:43:13.966Z,865.00
2019-04-30T03:44:21.760Z,864.00
2019-04-30T03:45:13.914Z,865.00
2019-04-30T03:46:15.790Z,866.00
2019-04-30T03:47:16.216Z,865.00
2019-04-30T03:47:24.758Z,856.00
2019-04-30T03:48:26.075Z,861.00
2019-04-30T03:49:26.564Z,860.00
2019-04-30T03:50:31.521Z,860.00
2019-04-30T03:51:26.539Z,860.00
2019-04-30T03:52:29.196Z,859.00
2019-04-30T03:53:29.682Z,859.00
2019-04-30T03:54:29.285Z,859.00
2019-04-30T03:55:29.938Z,860.00
2019-04-30T03:56:29.867Z,867.00
2019-04-30T03:57:30.278Z,868.00
2019-04-30T03:58:29.912Z,868.00
2019-04-30T03:59:31.304Z,868.00
2019-04-30T04:00:31.715Z,867.00
2019-04-30T04:01:32.241Z,865.00
2019-04-30T04:02:32.712Z,861.00
2019-04-30T04:03:33.167Z,866.00
2019-04-30T04:04:33.689Z,865.00
2019-04-30T04:05:34.193Z,861.00
2019-04-30T04:06:34.897Z,861.00
2019-04-30T04:07:35.432Z,861.00
2019-04-30T04:08:35.893Z,860.00
2019-04-30T04:09:36.628Z,852.00
2019-04-30T04:10:37.529Z,856.00
2019-04-30T04:11:39.625Z,866.00
2019-04-30T04:12:39.544Z,865.00
2019-04-30T04:13:40.057Z,866.00
2019-04-30T04:14:39.424Z,867.00
2019-04-30T04:15:39.906Z,868.00
2019-04-30T04:16:41.197Z,868.00
2019-04-30T04:17:40.338Z,868.00
2019-04-30T04:18:41.772Z,868.00
2019-04-30T04:19:42.142Z,867.00
2019-04-30T04:20:42.951Z,866.00
2019-04-30T04:21:42.242Z,865.00
2019-04-30T04:22:42.645Z,862.00
2019-04-30T04:23:44.209Z,861.00
2019-04-30T04:24:44.737Z,861.00
2019-04-30T04:25:45.455Z,860.00
2019-04-30T04:26:46.041Z,864.00
2019-04-30T04:27:46.496Z,865.00
2019-04-30T04:28:49.396Z,864.00
2019-04-30T04:29:46.321Z,861.00
2019-04-30T04:30:50.531Z,860.00
2019-04-30T04:31:50.148Z,860.00
2019-04-30T04:32:50.158Z,859.00
2019-04-30T04:33:52.293Z,860.00
2019-04-30T04:34:50.514Z,859.00
2019-04-30T04:35:49.889Z,859.00
2019-04-30T04:36:50.715Z,860.00
2019-04-30T04:37:50.395Z,860.00
2019-04-30T04:38:51.810Z,850.00
2019-04-30T04:39:52.247Z,850.00
2019-04-30T04:40:52.904Z,860.00
2019-04-30T04:41:53.604Z,859.00
2019-04-30T04:42:54.099Z,865.00
2019-04-30T04:43:54.490Z,865.00
2019-04-30T04:44:54.966Z,865.00
2019-04-30T04:45:55.465Z,865.00
2019-04-30T04:46:56.068Z,865.00
2019-04-30T04:47:56.503Z,861.00
2019-04-30T04:48:59.391Z,861.00
2019-04-30T04:49:56.440Z,864.00
2019-04-30T04:50:05.960Z,855.00
2019-04-30T04:51:10.865Z,864.00
2019-04-30T04:52:06.654Z,866.00
2019-04-30T04:53:11.286Z,864.00
2019-04-30T04:54:10.175Z,861.00
2019-04-30T04:55:09.998Z,860.00
2019-04-30T04:56:10.069Z,852.00
2019-04-30T04:57:16.966Z,850.00
2019-04-30T04:58:12.732Z,859.00
2019-04-30T04:59:10.478Z,861.00
2019-04-30T05:00:11.033Z,866.00
2019-04-30T05:01:13.781Z,866.00
2019-04-30T05:02:13.153Z,867.00
2019-04-30T05:03:13.650Z,866.00
2019-04-30T05:04:14.297Z,865.00
2019-04-30T05:05:14.699Z,865.00
2019-04-30T05:06:15.675Z,862.00
2019-04-30T05:07:16.093Z,862.00
2019-04-30T05:08:18.479Z,852.00
2019-04-30T05:09:16.011Z,852.00
2019-04-30T05:10:19.233Z,860.00
2019-04-30T05:11:16.982Z,850.00
2019-04-30T05:12:18.583Z,860.00
2019-04-30T05:13:19.237Z,853.00
2019-04-30T05:14:19.108Z,853.00
2019-04-30T05:15:19.563Z,852.00
2019-04-30T05:16:19.519Z,860.00
2019-04-30T05:17:21.019Z,852.00
2019-04-30T05:18:22.806Z,860.00
2019-04-30T05:19:21.080Z,859.00
2019-04-30T05:20:22.841Z,859.00
2019-04-30T05:21:23.336Z,861.00
2019-04-30T05:22:23.936Z,860.00
2019-04-30T05:23:24.668Z,859.00
2019-04-30T05:24:25.575Z,859.00
2019-04-30T05:25:25.990Z,860.00
2019-04-30T05:26:28.579Z,852.00
2019-04-30T05:27:25.922Z,850.00
2019-04-30T05:28:27.379Z,850.00
2019-04-30T05:29:28.972Z,859.00
2019-04-30T05:30:29.369Z,860.00
2019-04-30T05:31:28.979Z,860.00
2019-04-30T05:32:29.337Z,860.00
2019-04-30T05:33:29.032Z,859.00
2019-04-30T05:34:30.580Z,859.00
2019-04-30T05:35:31.384Z,859.00
2019-04-30T05:36:31.911Z,858.00
2019-04-30T05:37:32.583Z,860.00
2019-04-30T05:38:32.956Z,860.00
2019-04-30T05:39:33.448Z,861.00
2019-04-30T05:40:34.186Z,861.00
2019-04-30T05:41:33.621Z,860.00
2019-04-30T05:42:35.085Z,861.00
2019-04-30T05:43:35.907Z,861.00
2019-04-30T05:44:36.448Z,860.00
2019-04-30T05:45:38.896Z,860.00
2019-04-30T05:46:36.384Z,859.00
2019-04-30T05:47:38.890Z,859.00
2019-04-30T05:48:37.235Z,858.00
2019-04-30T05:49:38.953Z,858.00
2019-04-30T05:50:39.153Z,858.00
2019-04-30T05:51:38.877Z,858.00
2019-04-30T05:52:39.725Z,857.00
2019-04-30T05:53:39.531Z,857.00
2019-04-30T05:54:39.753Z,856.00
2019-04-30T05:55:41.687Z,857.00
2019-04-30T05:55:50.233Z,857.00
2019-04-30T05:56:51.566Z,856.00
2019-04-30T05:57:56.236Z,856.00
2019-04-30T05:58:51.904Z,856.00
2019-04-30T05:59:53.308Z,856.00
2019-04-30T06:00:53.683Z,855.00
2019-04-30T06:01:53.975Z,855.00
2019-04-30T06:02:54.375Z,853.00
2019-04-30T06:03:54.955Z,853.00
2019-04-30T06:04:55.346Z,853.00
2019-04-30T06:05:56.114Z,852.00
2019-04-30T06:06:58.629Z,852.00
2019-04-30T06:07:56.078Z,852.00
2019-04-30T06:09:06.166Z,844.00
2019-04-30T06:09:59.586Z,845.00
2019-04-30T06:10:59.752Z,845.00
2019-04-30T06:11:59.121Z,853.00
2019-04-30T06:12:59.459Z,853.00
2019-04-30T06:13:59.701Z,853.00
2019-04-30T06:15:01.170Z,855.00
2019-04-30T06:16:01.726Z,842.00
2019-04-30T06:17:02.196Z,845.00
2019-04-30T06:18:10.843Z,853.00
2019-04-30T06:19:02.552Z,852.00
2019-04-30T06:20:15.554Z,854.00
2019-04-30T06:21:03.663Z,853.00
2019-04-30T06:22:08.065Z,852.00
2019-04-30T06:23:04.147Z,849.00
2019-04-30T06:24:05.701Z,848.00
2019-04-30T06:25:06.301Z,846.00
2019-04-30T06:26:09.588Z,843.00
2019-04-30T06:27:06.241Z,842.00
2019-04-30T06:28:09.594Z,841.00
2019-04-30T06:29:09.146Z,842.00
2019-04-30T06:30:09.712Z,841.00
2019-04-30T06:31:09.104Z,836.00
2019-04-30T06:32:09.325Z,838.00
2019-04-30T06:33:11.746Z,836.00
2019-04-30T06:34:10.223Z,835.00
2019-04-30T06:35:11.795Z,835.00
2019-04-30T06:36:12.142Z,835.00
2019-04-30T06:37:12.598Z,836.00
2019-04-30T06:38:13.319Z,836.00
2019-04-30T06:39:13.823Z,836.00
2019-04-30T06:40:14.237Z,835.00
2019-04-30T06:41:14.815Z,825.00
2019-04-30T06:42:15.594Z,824.00
2019-04-30T06:43:15.932Z,832.00
2019-04-30T06:44:16.357Z,831.00
2019-04-30T06:45:18.993Z,829.00
2019-04-30T06:46:18.564Z,826.00
2019-04-30T06:47:20.011Z,824.00
2019-04-30T06:48:19.759Z,822.00
2019-04-30T06:49:19.489Z,820.00
2019-04-30T06:50:19.423Z,817.00
2019-04-30T06:51:19.399Z,814.00
2019-04-30T06:52:23.546Z,812.00
2019-04-30T06:53:20.601Z,810.00
2019-04-30T06:54:22.044Z,811.00
2019-04-30T06:55:22.535Z,810.00
2019-04-30T06:56:23.057Z,808.00
2019-04-30T06:56:32.103Z,807.00
2019-04-30T06:57:33.751Z,807.00
2019-04-30T06:58:34.309Z,806.00
2019-04-30T06:59:34.922Z,804.00
2019-04-30T07:00:35.641Z,802.00
2019-04-30T07:01:34.846Z,801.00
2019-04-30T07:02:36.344Z,802.00
2019-04-30T07:03:36.730Z,801.00
2019-04-30T07:04:37.245Z,798.00
2019-04-30T07:05:38.927Z,792.00
2019-04-30T07:06:43.935Z,796.00
2019-04-30T07:07:41.525Z,795.00
2019-04-30T07:08:42.469Z,795.00
2019-04-30T07:09:51.461Z,797.00
2019-04-30T07:10:41.408Z,797.00
2019-04-30T07:11:40.063Z,796.00
2019-04-30T07:12:42.134Z,796.00
2019-04-30T07:13:41.630Z,796.00
2019-04-30T07:14:42.088Z,797.00
2019-04-30T07:15:42.745Z,797.00
2019-04-30T07:16:43.186Z,799.00
2019-04-30T07:17:43.825Z,801.00
2019-04-30T07:18:44.329Z,801.00
2019-04-30T07:19:55.700Z,806.00
2019-04-30T07:20:44.194Z,807.00
2019-04-30T07:21:45.792Z,808.00
2019-04-30T07:22:52.524Z,811.00
2019-04-30T07:23:48.498Z,811.00
2019-04-30T07:24:46.996Z,813.00
2019-04-30T07:25:51.379Z,814.00
2019-04-30T07:26:49.011Z,813.00
2019-04-30T07:27:50.550Z,813.00
2019-04-30T07:28:54.237Z,813.00
2019-04-30T07:29:49.675Z,817.00
2019-04-30T07:31:07.180Z,820.00
2019-04-30T07:31:51.755Z,821.00
2019-04-30T07:32:51.243Z,822.00
2019-04-30T07:33:53.870Z,826.00
2019-04-30T07:34:52.136Z,826.00
2019-04-30T07:35:53.478Z,831.00
2019-04-30T07:37:10.919Z,832.00
2019-04-30T07:37:54.683Z,825.00
2019-04-30T07:38:56.668Z,833.00
2019-04-30T07:39:54.683Z,833.00
2019-04-30T07:40:55.907Z,834.00
2019-04-30T07:41:56.389Z,836.00
2019-04-30T07:42:58.969Z,836.00
2019-04-30T07:43:56.243Z,835.00
2019-04-30T07:45:00.414Z,834.00
2019-04-30T07:45:59.698Z,833.00
2019-04-30T07:46:59.396Z,833.00
2019-04-30T07:47:59.371Z,832.00
2019-04-30T07:49:00.006Z,831.00
2019-04-30T07:50:00.642Z,831.00
2019-04-30T07:51:00.033Z,830.00
2019-04-30T07:52:02.455Z,830.00
2019-04-30T07:53:05.519Z,826.00
2019-04-30T07:54:01.397Z,825.00
2019-04-30T07:55:02.792Z,824.00
2019-04-30T07:56:21.146Z,825.00
2019-04-30T07:57:02.879Z,825.00
2019-04-30T07:58:03.200Z,823.00
2019-04-30T07:59:04.647Z,823.00
2019-04-30T08:00:05.328Z,821.00
2019-04-30T08:01:06.266Z,814.00
2019-04-30T08:02:13.639Z,821.00
2019-04-30T08:03:06.896Z,820.00
2019-04-30T08:04:08.688Z,822.00
2019-04-30T08:05:10.340Z,821.00
2019-04-30T08:06:10.101Z,814.00
2019-04-30T08:07:09.778Z,822.00
2019-04-30T08:08:20.822Z,819.00
2019-04-30T08:09:10.281Z,821.00
2019-04-30T08:09:19.636Z,822.00
2019-04-30T08:10:19.077Z,826.00
2019-04-30T08:11:26.079Z,829.00
2019-04-30T08:12:26.103Z,832.00
2019-04-30T08:13:21.844Z,831.00
2019-04-30T08:14:21.200Z,831.00
2019-04-30T08:15:21.366Z,828.00
2019-04-30T08:16:22.854Z,826.00
2019-04-30T08:17:23.261Z,826.00
2019-04-30T08:18:23.693Z,825.00
2019-04-30T08:19:24.066Z,826.00
2019-04-30T08:20:24.639Z,826.00
2019-04-30T08:21:26.401Z,829.00
2019-04-30T08:22:25.929Z,830.00
2019-04-30T08:23:34.997Z,831.00
2019-04-30T08:24:26.328Z,830.00
2019-04-30T08:25:29.097Z,831.00
2019-04-30T08:26:28.716Z,832.00
2019-04-30T08:27:29.640Z,825.00
2019-04-30T08:28:30.400Z,826.00
2019-04-30T08:29:29.526Z,833.00
2019-04-30T08:30:30.125Z,832.00
2019-04-30T08:31:30.416Z,833.00
2019-04-30T08:32:31.805Z,833.00
2019-04-30T08:33:32.337Z,832.00
2019-04-30T08:34:32.875Z,826.00
2019-04-30T08:35:33.422Z,834.00
2019-04-30T08:36:33.884Z,833.00
2019-04-30T08:37:34.268Z,834.00
2019-04-30T08:38:35.180Z,833.00
2019-04-30T08:39:34.610Z,833.00
2019-04-30T08:40:36.109Z,834.00
2019-04-30T08:41:36.568Z,832.00
2019-04-30T08:42:38.429Z,831.00
2019-04-30T08:43:36.071Z,831.00
2019-04-30T08:44:39.511Z,830.00
2019-04-30T08:45:38.589Z,830.00
2019-04-30T08:46:38.750Z,829.00
2019-04-30T08:47:39.306Z,831.00
2019-04-30T08:48:47.845Z,832.00
2019-04-30T08:49:40.444Z,831.00
2019-04-30T08:50:39.734Z,829.00
2019-04-30T08:51:40.137Z,826.00
2019-04-30T08:52:40.063Z,829.00
2019-04-30T08:53:41.589Z,829.00
2019-04-30T08:54:40.944Z,832.00
2019-04-30T08:55:42.443Z,833.00
2019-04-30T08:56:43.016Z,833.00
2019-04-30T08:57:43.682Z,832.00
2019-04-30T08:58:44.039Z,832.00
2019-04-30T08:59:44.538Z,832.00
2019-04-30T09:00:45.459Z,832.00
2019-04-30T09:01:46.006Z,832.00
2019-04-30T09:02:46.525Z,833.00
2019-04-30T09:03:46.080Z,834.00
2019-04-30T09:04:49.397Z,840.00
2019-04-30T09:05:47.256Z,836.00
2019-04-30T09:06:49.240Z,838.00
2019-04-30T09:07:48.651Z,841.00
2019-04-30T09:08:49.070Z,842.00
2019-04-30T09:09:49.182Z,842.00
2019-04-30T09:10:50.444Z,841.00
2019-04-30T09:11:55.381Z,837.00
2019-04-30T09:12:52.014Z,838.00
2019-04-30T09:13:51.484Z,838.00
2019-04-30T09:14:53.118Z,838.00
2019-04-30T09:15:02.653Z,838.00
2019-04-30T09:16:04.503Z,837.00
2019-04-30T09:17:05.017Z,837.00
2019-04-30T09:18:08.216Z,835.00
2019-04-30T09:19:04.731Z,836.00
2019-04-30T09:20:06.329Z,836.00
2019-04-30T09:21:08.848Z,836.00
2019-04-30T09:22:14.362Z,835.00
2019-04-30T09:23:06.363Z,834.00
2019-04-30T09:24:09.525Z,834.00
2019-04-30T09:25:09.222Z,835.00
2019-04-30T09:26:08.675Z,836.00
2019-04-30T09:27:10.655Z,837.00
2019-04-30T09:28:08.900Z,838.00
2019-04-30T09:29:10.489Z,838.00
2019-04-30T09:30:10.545Z,838.00
2019-04-30T09:31:10.054Z,841.00
2019-04-30T09:32:11.553Z,841.00
2019-04-30T09:33:12.034Z,835.00
2019-04-30T09:34:17.018Z,840.00
2019-04-30T09:35:12.207Z,841.00
2019-04-30T09:36:13.751Z,835.00
2019-04-30T09:37:14.337Z,838.00
2019-04-30T09:38:14.754Z,842.00
2019-04-30T09:39:15.251Z,842.00
2019-04-30T09:40:18.534Z,841.00
2019-04-30T09:41:15.898Z,841.00
2019-04-30T09:42:19.405Z,841.00
2019-04-30T09:43:18.802Z,835.00
2019-04-30T09:44:19.448Z,840.00
2019-04-30T09:45:18.736Z,841.00
2019-04-30T09:46:26.312Z,841.00
2019-04-30T09:47:20.039Z,840.00
2019-04-30T09:48:19.204Z,841.00
2019-04-30T09:49:19.524Z,841.00
2019-04-30T09:50:19.890Z,840.00
2019-04-30T09:51:24.601Z,840.00
2019-04-30T09:52:21.874Z,841.00
2019-04-30T09:53:22.160Z,841.00
2019-04-30T09:54:24.127Z,842.00
2019-04-30T09:55:23.343Z,841.00
2019-04-30T09:56:24.825Z,840.00
2019-04-30T09:57:25.253Z,840.00
2019-04-30T09:58:25.977Z,841.00
2019-04-30T09:59:26.393Z,840.00
2019-04-30T10:00:26.835Z,840.00
2019-04-30T10:01:27.837Z,840.00
2019-04-30T10:02:29.052Z,838.00
2019-04-30T10:03:30.263Z,840.00
2019-04-30T10:04:30.348Z,836.00
2019-04-30T10:05:29.294Z,840.00
2019-04-30T10:06:38.933Z,840.00
2019-04-30T10:07:29.725Z,840.00
2019-04-30T10:08:31.756Z,838.00
2019-04-30T10:09:30.870Z,838.00
2019-04-30T10:10:32.387Z,836.00
2019-04-30T10:11:32.949Z,836.00
2019-04-30T10:12:33.443Z,835.00
2019-04-30T10:13:34.176Z,835.00
2019-04-30T10:14:33.218Z,836.00
2019-04-30T10:15:34.742Z,836.00
2019-04-30T10:16:35.279Z,835.00
2019-04-30T10:17:35.699Z,834.00
2019-04-30T10:18:36.177Z,834.00
2019-04-30T10:19:36.839Z,834.00
2019-04-30T10:20:37.245Z,835.00
2019-04-30T10:20:45.777Z,835.00
2019-04-30T10:21:48.984Z,834.00
2019-04-30T10:22:46.437Z,834.00
2019-04-30T10:23:49.821Z,834.00
2019-04-30T10:24:49.441Z,834.00
2019-04-30T10:25:47.973Z,836.00
2019-04-30T10:26:49.372Z,834.00
2019-04-30T10:27:49.936Z,834.00
2019-04-30T10:28:49.161Z,834.00
2019-04-30T10:29:50.670Z,835.00
2019-04-30T10:30:51.146Z,835.00
2019-04-30T10:31:51.516Z,835.00
2019-04-30T10:32:52.468Z,835.00
2019-04-30T10:33:52.839Z,834.00
2019-04-30T10:34:53.340Z,834.00
2019-04-30T10:35:54.253Z,835.00
2019-04-30T10:36:53.781Z,835.00
2019-04-30T10:37:55.205Z,834.00
2019-04-30T10:38:55.598Z,834.00
2019-04-30T10:39:56.486Z,833.00
2019-04-30T10:40:58.727Z,834.00
2019-04-30T10:41:56.489Z,834.00
2019-04-30T10:42:58.666Z,833.00
2019-04-30T10:43:59.122Z,834.00
2019-04-30T10:45:00.036Z,835.00
2019-04-30T10:45:58.876Z,835.00
2019-04-30T10:47:00.563Z,834.00
2019-04-30T10:48:01.030Z,834.00
2019-04-30T10:49:01.552Z,834.00
2019-04-30T10:50:01.897Z,834.00
2019-04-30T10:51:02.898Z,833.00
2019-04-30T10:52:02.491Z,832.00
2019-04-30T10:53:03.141Z,832.00
2019-04-30T10:54:03.677Z,831.00
2019-04-30T10:55:04.655Z,831.00
2019-04-30T10:56:03.756Z,832.00
2019-04-30T10:57:05.315Z,832.00
2019-04-30T10:58:05.895Z,831.00
2019-04-30T10:59:06.289Z,832.00
2019-04-30T11:00:08.327Z,831.00
2019-04-30T11:01:06.548Z,832.00
2019-04-30T11:02:09.088Z,832.00
2019-04-30T11:03:17.298Z,832.00
2019-04-30T11:04:07.938Z,831.00
2019-04-30T11:05:08.423Z,832.00
2019-04-30T11:06:09.455Z,833.00
2019-04-30T11:07:10.189Z,833.00
2019-04-30T11:08:11.003Z,833.00
2019-04-30T11:09:11.011Z,832.00
2019-04-30T11:10:11.504Z,831.00
2019-04-30T11:11:12.232Z,831.00
2019-04-30T11:12:12.734Z,832.00
2019-04-30T11:13:13.025Z,832.00
2019-04-30T11:14:12.136Z,833.00
2019-04-30T11:15:13.753Z,833.00
2019-04-30T11:15:22.334Z,833.00
2019-04-30T11:16:23.335Z,834.00
2019-04-30T11:17:24.206Z,834.00
2019-04-30T11:18:23.745Z,834.00
2019-04-30T11:19:24.154Z,834.00
2019-04-30T11:20:24.775Z,834.00
2019-04-30T11:21:25.315Z,834.00
2019-04-30T11:22:26.394Z,834.00
2019-04-30T11:23:26.852Z,835.00
2019-04-30T11:24:36.571Z,833.00
2019-04-30T11:25:30.742Z,833.00
2019-04-30T11:26:31.125Z,833.00
2019-04-30T11:27:30.642Z,833.00
2019-04-30T11:28:30.099Z,832.00
2019-04-30T11:29:31.000Z,832.00
2019-04-30T11:30:31.399Z,832.00
2019-04-30T11:31:32.157Z,831.00
2019-04-30T11:32:32.657Z,831.00
2019-04-30T11:33:33.554Z,832.00
2019-04-30T11:34:33.817Z,832.00
2019-04-30T11:35:35.270Z,833.00
2019-04-30T11:36:35.682Z,831.00
2019-04-30T11:37:36.159Z,831.00
2019-04-30T11:38:38.806Z,833.00
2019-04-30T11:39:36.415Z,832.00
2019-04-30T11:40:39.918Z,833.00
2019-04-30T11:41:39.148Z,832.00
2019-04-30T11:42:37.995Z,832.00
2019-04-30T11:43:39.559Z,832.00
2019-04-30T11:44:40.369Z,832.00
2019-04-30T11:45:39.618Z,832.00
2019-04-30T11:46:41.166Z,833.00
2019-04-30T11:47:53.077Z,832.00
2019-04-30T11:48:41.294Z,832.00
2019-04-30T11:49:42.937Z,832.00
2019-04-30T11:50:43.810Z,832.00
2019-04-30T11:51:44.694Z,832.00
2019-04-30T11:52:45.273Z,833.00
2019-04-30T11:53:45.856Z,832.00
2019-04-30T11:54:51.378Z,832.00
2019-04-30T11:55:45.949Z,832.00
2019-04-30T11:56:50.249Z,832.00
2019-04-30T11:57:49.391Z,832.00
2019-04-30T11:58:48.922Z,832.00
2019-04-30T11:59:47.894Z,831.00
2019-04-30T12:00:49.610Z,830.00
2019-04-30T12:01:49.178Z,831.00
2019-04-30T12:02:53.010Z,829.00
2019-04-30T12:03:50.446Z,829.00
2019-04-30T12:04:52.004Z,828.00
2019-04-30T12:05:52.635Z,826.00
2019-04-30T12:06:53.227Z,826.00
2019-04-30T12:07:53.816Z,826.00
2019-04-30T12:08:54.207Z,826.00
2019-04-30T12:09:54.724Z,826.00
2019-04-30T12:10:55.426Z,826.00
2019-04-30T12:11:55.997Z,828.00
2019-04-30T12:12:58.584Z,828.00
2019-04-30T12:13:56.061Z,829.00
2019-04-30T12:14:59.343Z,828.00
2019-04-30T12:15:58.915Z,826.00
2019-04-30T12:16:57.625Z,828.00
2019-04-30T12:17:58.097Z,826.00
2019-04-30T12:19:00.671Z,829.00
2019-04-30T12:19:59.415Z,826.00
2019-04-30T12:21:00.881Z,826.00
2019-04-30T12:22:01.622Z,826.00
2019-04-30T12:23:01.632Z,826.00
2019-04-30T12:24:02.621Z,829.00
2019-04-30T12:24:11.167Z,828.00
2019-04-30T12:25:12.538Z,826.00